sensor_id;sensor_type;location;lat;lon;timestamp;P1;durP1;ratioP1;P2;durP2;ratioP2
71288;SDS011;59068;52.502;9.860;2024-01-30T00:00:04;7.37;;;6.00;;
71288;SDS011;59068;52.502;9.860;2024-01-30T00:02:34;6.93;;;6.23;;
71288;SDS011;59068;52.502;9.860;2024-01-30T00:05:01;7.57;;;5.63;;
71288;SDS011;59068;52.502;9.860;2024-01-30T00:07:29;7.67;;;6.40;;
71288;SDS011;59068;52.502;9.860;2024-01-30T00:09:59;8.60;;;5.93;;
71288;SDS011;59068;52.502;9.860;2024-01-30T00:12:26;8.93;;;6.20;;
71288;SDS011;59068;52.502;9.860;2024-01-30T00:14:54;7.50;;;5.90;;
71288;SDS011;59068;52.502;9.860;2024-01-30T00:17:22;6.73;;;6.03;;
71288;SDS011;59068;52.502;9.860;2024-01-30T00:19:51;8.93;;;6.43;;
71288;SDS011;59068;52.502;9.860;2024-01-30T00:22:18;8.07;;;6.57;;
71288;SDS011;59068;52.502;9.860;2024-01-30T00:24:52;9.20;;;7.23;;
71288;SDS011;59068;52.502;9.860;2024-01-30T00:27:20;7.80;;;6.67;;
71288;SDS011;59068;52.502;9.860;2024-01-30T00:29:47;8.20;;;6.70;;
71288;SDS011;59068;52.502;9.860;2024-01-30T00:32:15;10.07;;;7.33;;
71288;SDS011;59068;52.502;9.860;2024-01-30T00:34:45;7.97;;;6.70;;
71288;SDS011;59068;52.502;9.860;2024-01-30T00:37:14;8.70;;;6.23;;
71288;SDS011;59068;52.502;9.860;2024-01-30T00:42:33;7.43;;;5.97;;
71288;SDS011;59068;52.502;9.860;2024-01-30T00:45:01;8.07;;;7.13;;
71288;SDS011;59068;52.502;9.860;2024-01-30T00:47:28;6.97;;;6.27;;
71288;SDS011;59068;52.502;9.860;2024-01-30T00:49:56;11.17;;;7.43;;
71288;SDS011;59068;52.502;9.860;2024-01-30T00:52:25;7.17;;;6.47;;
71288;SDS011;59068;52.502;9.860;2024-01-30T00:57:43;9.47;;;6.93;;
71288;SDS011;59068;52.502;9.860;2024-01-30T01:00:11;10.00;;;6.93;;
71288;SDS011;59068;52.502;9.860;2024-01-30T01:02:38;7.03;;;6.33;;
71288;SDS011;59068;52.502;9.860;2024-01-30T01:05:06;7.87;;;7.03;;
71288;SDS011;59068;52.502;9.860;2024-01-30T01:07:36;7.20;;;6.40;;
71288;SDS011;59068;52.502;9.860;2024-01-30T01:12:54;8.13;;;6.20;;
71288;SDS011;59068;52.502;9.860;2024-01-30T01:15:22;8.00;;;6.90;;
71288;SDS011;59068;52.502;9.860;2024-01-30T01:17:49;7.73;;;6.20;;
71288;SDS011;59068;52.502;9.860;2024-01-30T01:20:15;7.23;;;6.33;;
71288;SDS011;59068;52.502;9.860;2024-01-30T01:22:44;9.10;;;6.80;;
71288;SDS011;59068;52.502;9.860;2024-01-30T01:28:02;8.20;;;7.20;;
71288;SDS011;59068;52.502;9.860;2024-01-30T01:30:30;8.43;;;7.40;;
71288;SDS011;59068;52.502;9.860;2024-01-30T01:32:57;8.23;;;6.73;;
71288;SDS011;59068;52.502;9.860;2024-01-30T01:35:27;7.57;;;6.67;;
71288;SDS011;59068;52.502;9.860;2024-01-30T01:38:02;7.93;;;6.67;;
71288;SDS011;59068;52.502;9.860;2024-01-30T01:40:29;7.67;;;6.27;;
71288;SDS011;59068;52.502;9.860;2024-01-30T01:42:57;7.77;;;6.97;;
71288;SDS011;59068;52.502;9.860;2024-01-30T01:45:24;9.17;;;7.10;;
71288;SDS011;59068;52.502;9.860;2024-01-30T01:47:51;10.10;;;7.40;;
71288;SDS011;59068;52.502;9.860;2024-01-30T01:50:18;10.40;;;7.43;;
71288;SDS011;59068;52.502;9.860;2024-01-30T01:52:46;8.03;;;7.03;;
71288;SDS011;59068;52.502;9.860;2024-01-30T01:55:18;8.57;;;6.53;;
71288;SDS011;59068;52.502;9.860;2024-01-30T01:57:48;7.57;;;6.43;;
71288;SDS011;59068;52.502;9.860;2024-01-30T02:00:14;9.30;;;7.10;;
71288;SDS011;59068;52.502;9.860;2024-01-30T02:02:41;8.67;;;7.10;;
71288;SDS011;59068;52.502;9.860;2024-01-30T02:05:10;7.80;;;7.00;;
71288;SDS011;59068;52.502;9.860;2024-01-30T02:07:38;8.77;;;7.30;;
71288;SDS011;59068;52.502;9.860;2024-01-30T02:10:05;7.77;;;6.73;;
71288;SDS011;59068;52.502;9.860;2024-01-30T02:12:37;8.43;;;7.07;;
71288;SDS011;59068;52.502;9.860;2024-01-30T02:15:05;9.07;;;6.97;;
71288;SDS011;59068;52.502;9.860;2024-01-30T02:17:33;7.43;;;6.67;;
71288;SDS011;59068;52.502;9.860;2024-01-30T02:20:01;7.67;;;6.73;;
71288;SDS011;59068;52.502;9.860;2024-01-30T02:22:34;8.27;;;6.93;;
71288;SDS011;59068;52.502;9.860;2024-01-30T02:25:01;8.10;;;6.97;;
71288;SDS011;59068;52.502;9.860;2024-01-30T02:27:29;7.33;;;6.57;;
71288;SDS011;59068;52.502;9.860;2024-01-30T02:29:59;7.80;;;6.90;;
71288;SDS011;59068;52.502;9.860;2024-01-30T02:32:25;8.27;;;6.83;;
71288;SDS011;59068;52.502;9.860;2024-01-30T02:34:53;8.77;;;6.97;;
71288;SDS011;59068;52.502;9.860;2024-01-30T02:37:19;7.97;;;6.50;;
71288;SDS011;59068;52.502;9.860;2024-01-30T02:39:47;7.83;;;7.00;;
71288;SDS011;59068;52.502;9.860;2024-01-30T02:42:14;9.33;;;7.33;;
71288;SDS011;59068;52.502;9.860;2024-01-30T02:44:41;9.40;;;7.03;;
71288;SDS011;59068;52.502;9.860;2024-01-30T02:47:08;11.03;;;7.00;;
71288;SDS011;59068;52.502;9.860;2024-01-30T02:49:36;8.43;;;7.10;;
71288;SDS011;59068;52.502;9.860;2024-01-30T02:52:04;6.70;;;6.00;;
71288;SDS011;59068;52.502;9.860;2024-01-30T02:54:30;8.40;;;7.00;;
71288;SDS011;59068;52.502;9.860;2024-01-30T02:57:03;8.93;;;7.37;;
71288;SDS011;59068;52.502;9.860;2024-01-30T02:59:30;10.53;;;7.90;;
71288;SDS011;59068;52.502;9.860;2024-01-30T03:01:58;8.13;;;7.33;;
71288;SDS011;59068;52.502;9.860;2024-01-30T03:04:26;9.43;;;7.40;;
71288;SDS011;59068;52.502;9.860;2024-01-30T03:06:53;8.90;;;7.47;;
71288;SDS011;59068;52.502;9.860;2024-01-30T03:09:20;9.43;;;7.57;;
71288;SDS011;59068;52.502;9.860;2024-01-30T03:11:50;9.77;;;7.30;;
71288;SDS011;59068;52.502;9.860;2024-01-30T03:14:17;9.60;;;7.87;;
71288;SDS011;59068;52.502;9.860;2024-01-30T03:16:44;8.63;;;7.13;;
71288;SDS011;59068;52.502;9.860;2024-01-30T03:19:12;9.13;;;6.80;;
71288;SDS011;59068;52.502;9.860;2024-01-30T03:21:39;9.40;;;8.00;;
71288;SDS011;59068;52.502;9.860;2024-01-30T03:24:06;11.63;;;8.27;;
71288;SDS011;59068;52.502;9.860;2024-01-30T03:26:35;11.03;;;7.63;;
71288;SDS011;59068;52.502;9.860;2024-01-30T03:29:02;9.50;;;7.07;;
71288;SDS011;59068;52.502;9.860;2024-01-30T03:31:30;11.37;;;7.50;;
71288;SDS011;59068;52.502;9.860;2024-01-30T03:33:58;9.30;;;7.33;;
71288;SDS011;59068;52.502;9.860;2024-01-30T03:36:26;8.33;;;7.40;;
71288;SDS011;59068;52.502;9.860;2024-01-30T03:38:52;8.70;;;6.83;;
71288;SDS011;59068;52.502;9.860;2024-01-30T03:41:18;7.63;;;6.83;;
71288;SDS011;59068;52.502;9.860;2024-01-30T03:43:46;9.60;;;7.20;;
71288;SDS011;59068;52.502;9.860;2024-01-30T03:46:15;9.87;;;7.53;;
71288;SDS011;59068;52.502;9.860;2024-01-30T03:48:45;8.17;;;7.37;;
71288;SDS011;59068;52.502;9.860;2024-01-30T03:51:12;9.07;;;7.37;;
71288;SDS011;59068;52.502;9.860;2024-01-30T03:53:40;8.50;;;7.00;;
71288;SDS011;59068;52.502;9.860;2024-01-30T03:56:09;10.57;;;7.33;;
71288;SDS011;59068;52.502;9.860;2024-01-30T03:58:37;11.40;;;7.47;;
71288;SDS011;59068;52.502;9.860;2024-01-30T04:01:04;9.93;;;7.50;;
71288;SDS011;59068;52.502;9.860;2024-01-30T04:03:32;9.13;;;7.30;;
71288;SDS011;59068;52.502;9.860;2024-01-30T04:06:01;8.57;;;7.10;;
71288;SDS011;59068;52.502;9.860;2024-01-30T04:08:28;10.93;;;7.73;;
71288;SDS011;59068;52.502;9.860;2024-01-30T04:10:56;8.97;;;7.63;;
71288;SDS011;59068;52.502;9.860;2024-01-30T04:13:24;10.43;;;6.93;;
71288;SDS011;59068;52.502;9.860;2024-01-30T04:15:50;8.23;;;6.83;;
71288;SDS011;59068;52.502;9.860;2024-01-30T04:18:18;8.47;;;7.37;;
71288;SDS011;59068;52.502;9.860;2024-01-30T04:20:46;9.77;;;7.63;;
71288;SDS011;59068;52.502;9.860;2024-01-30T04:23:15;9.30;;;7.37;;
71288;SDS011;59068;52.502;9.860;2024-01-30T04:25:43;9.43;;;6.80;;
71288;SDS011;59068;52.502;9.860;2024-01-30T04:28:12;7.50;;;6.60;;
71288;SDS011;59068;52.502;9.860;2024-01-30T04:30:38;10.77;;;6.90;;
71288;SDS011;59068;52.502;9.860;2024-01-30T04:33:06;8.47;;;7.53;;
71288;SDS011;59068;52.502;9.860;2024-01-30T04:35:33;7.63;;;6.83;;
71288;SDS011;59068;52.502;9.860;2024-01-30T04:38:01;9.40;;;7.20;;
71288;SDS011;59068;52.502;9.860;2024-01-30T04:40:30;8.80;;;7.73;;
71288;SDS011;59068;52.502;9.860;2024-01-30T04:42:58;10.93;;;7.30;;
71288;SDS011;59068;52.502;9.860;2024-01-30T04:45:24;8.43;;;7.53;;
71288;SDS011;59068;52.502;9.860;2024-01-30T04:47:52;9.07;;;7.57;;
71288;SDS011;59068;52.502;9.860;2024-01-30T04:50:18;10.60;;;7.70;;
71288;SDS011;59068;52.502;9.860;2024-01-30T04:52:45;10.10;;;6.77;;
71288;SDS011;59068;52.502;9.860;2024-01-30T04:55:13;8.13;;;6.80;;
71288;SDS011;59068;52.502;9.860;2024-01-30T04:57:42;8.80;;;7.27;;
71288;SDS011;59068;52.502;9.860;2024-01-30T05:00:09;8.87;;;6.67;;
71288;SDS011;59068;52.502;9.860;2024-01-30T05:02:37;8.83;;;7.20;;
71288;SDS011;59068;52.502;9.860;2024-01-30T05:05:05;8.73;;;6.60;;
71288;SDS011;59068;52.502;9.860;2024-01-30T05:07:32;10.93;;;7.47;;
71288;SDS011;59068;52.502;9.860;2024-01-30T05:10:00;7.93;;;6.97;;
71288;SDS011;59068;52.502;9.860;2024-01-30T05:12:29;8.03;;;6.50;;
71288;SDS011;59068;52.502;9.860;2024-01-30T05:14:57;9.67;;;7.30;;
71288;SDS011;59068;52.502;9.860;2024-01-30T05:17:24;5.97;;;5.20;;
71288;SDS011;59068;52.502;9.860;2024-01-30T05:19:52;10.00;;;8.47;;
71288;SDS011;59068;52.502;9.860;2024-01-30T05:22:20;9.03;;;7.77;;
71288;SDS011;59068;52.502;9.860;2024-01-30T05:24:48;9.13;;;7.03;;
71288;SDS011;59068;52.502;9.860;2024-01-30T05:27:14;8.17;;;6.63;;
71288;SDS011;59068;52.502;9.860;2024-01-30T05:29:43;8.33;;;7.37;;
71288;SDS011;59068;52.502;9.860;2024-01-30T05:32:12;8.50;;;7.17;;
71288;SDS011;59068;52.502;9.860;2024-01-30T05:34:39;9.07;;;7.00;;
71288;SDS011;59068;52.502;9.860;2024-01-30T05:37:06;9.13;;;7.10;;
71288;SDS011;59068;52.502;9.860;2024-01-30T05:39:32;9.40;;;6.77;;
71288;SDS011;59068;52.502;9.860;2024-01-30T05:42:00;8.17;;;7.37;;
71288;SDS011;59068;52.502;9.860;2024-01-30T05:44:27;9.23;;;7.33;;
71288;SDS011;59068;52.502;9.860;2024-01-30T05:46:55;9.70;;;7.10;;
71288;SDS011;59068;52.502;9.860;2024-01-30T05:49:23;7.67;;;6.77;;
71288;SDS011;59068;52.502;9.860;2024-01-30T05:51:50;8.13;;;6.87;;
71288;SDS011;59068;52.502;9.860;2024-01-30T05:54:17;9.90;;;6.87;;
71288;SDS011;59068;52.502;9.860;2024-01-30T05:56:45;8.03;;;6.70;;
71288;SDS011;59068;52.502;9.860;2024-01-30T05:59:12;8.40;;;7.57;;
71288;SDS011;59068;52.502;9.860;2024-01-30T06:01:45;8.40;;;7.07;;
71288;SDS011;59068;52.502;9.860;2024-01-30T06:04:11;10.33;;;6.93;;
71288;SDS011;59068;52.502;9.860;2024-01-30T06:06:40;9.10;;;6.90;;
71288;SDS011;59068;52.502;9.860;2024-01-30T06:09:07;9.17;;;6.73;;
71288;SDS011;59068;52.502;9.860;2024-01-30T06:11:35;9.83;;;7.33;;
71288;SDS011;59068;52.502;9.860;2024-01-30T06:14:02;9.83;;;7.43;;
71288;SDS011;59068;52.502;9.860;2024-01-30T06:16:30;8.37;;;7.03;;
71288;SDS011;59068;52.502;9.860;2024-01-30T06:18:58;8.70;;;7.60;;
71288;SDS011;59068;52.502;9.860;2024-01-30T06:21:25;9.47;;;7.53;;
71288;SDS011;59068;52.502;9.860;2024-01-30T06:23:55;9.73;;;7.40;;
71288;SDS011;59068;52.502;9.860;2024-01-30T06:26:23;9.63;;;7.43;;
71288;SDS011;59068;52.502;9.860;2024-01-30T06:28:50;8.63;;;7.57;;
71288;SDS011;59068;52.502;9.860;2024-01-30T06:31:18;11.47;;;7.43;;
71288;SDS011;59068;52.502;9.860;2024-01-30T06:33:46;9.80;;;7.70;;
71288;SDS011;59068;52.502;9.860;2024-01-30T06:36:12;10.40;;;7.70;;
71288;SDS011;59068;52.502;9.860;2024-01-30T06:38:40;8.63;;;7.30;;
71288;SDS011;59068;52.502;9.860;2024-01-30T06:41:09;9.37;;;7.20;;
71288;SDS011;59068;52.502;9.860;2024-01-30T06:43:36;8.07;;;7.27;;
71288;SDS011;59068;52.502;9.860;2024-01-30T06:46:04;8.97;;;7.60;;
71288;SDS011;59068;52.502;9.860;2024-01-30T06:48:31;9.73;;;8.50;;
71288;SDS011;59068;52.502;9.860;2024-01-30T06:50:58;10.53;;;8.37;;
71288;SDS011;59068;52.502;9.860;2024-01-30T06:53:26;10.47;;;8.33;;
71288;SDS011;59068;52.502;9.860;2024-01-30T06:55:54;11.93;;;7.73;;
71288;SDS011;59068;52.502;9.860;2024-01-30T06:58:22;8.73;;;7.83;;
71288;SDS011;59068;52.502;9.860;2024-01-30T07:00:49;10.73;;;8.10;;
71288;SDS011;59068;52.502;9.860;2024-01-30T07:03:17;11.63;;;7.87;;
71288;SDS011;59068;52.502;9.860;2024-01-30T07:05:44;10.37;;;8.33;;
71288;SDS011;59068;52.502;9.860;2024-01-30T07:08:10;11.37;;;7.47;;
71288;SDS011;59068;52.502;9.860;2024-01-30T07:10:38;10.90;;;8.33;;
71288;SDS011;59068;52.502;9.860;2024-01-30T07:13:05;9.03;;;8.07;;
71288;SDS011;59068;52.502;9.860;2024-01-30T07:15:36;9.33;;;7.97;;
71288;SDS011;59068;52.502;9.860;2024-01-30T07:18:04;9.40;;;8.23;;
71288;SDS011;59068;52.502;9.860;2024-01-30T07:20:31;11.20;;;7.73;;
71288;SDS011;59068;52.502;9.860;2024-01-30T07:22:59;11.60;;;7.90;;
71288;SDS011;59068;52.502;9.860;2024-01-30T07:25:25;8.77;;;7.87;;
71288;SDS011;59068;52.502;9.860;2024-01-30T07:27:54;9.57;;;8.23;;
71288;SDS011;59068;52.502;9.860;2024-01-30T07:30:23;9.70;;;7.87;;
71288;SDS011;59068;52.502;9.860;2024-01-30T07:32:52;8.57;;;7.70;;
71288;SDS011;59068;52.502;9.860;2024-01-30T07:35:18;8.40;;;7.50;;
71288;SDS011;59068;52.502;9.860;2024-01-30T07:37:45;8.80;;;7.87;;
71288;SDS011;59068;52.502;9.860;2024-01-30T07:40:11;9.27;;;7.97;;
71288;SDS011;59068;52.502;9.860;2024-01-30T07:42:38;11.70;;;7.73;;
71288;SDS011;59068;52.502;9.860;2024-01-30T07:45:06;10.87;;;7.90;;
71288;SDS011;59068;52.502;9.860;2024-01-30T07:47:34;9.30;;;8.07;;
71288;SDS011;59068;52.502;9.860;2024-01-30T07:50:03;12.37;;;11.07;;
71288;SDS011;59068;52.502;9.860;2024-01-30T07:52:29;10.77;;;9.10;;
71288;SDS011;59068;52.502;9.860;2024-01-30T07:55:00;11.67;;;8.27;;
71288;SDS011;59068;52.502;9.860;2024-01-30T08:03:57;10.90;;;8.07;;
71288;SDS011;59068;52.502;9.860;2024-01-30T08:06:25;9.23;;;8.10;;
71288;SDS011;59068;52.502;9.860;2024-01-30T08:08:53;8.63;;;7.73;;
71288;SDS011;59068;52.502;9.860;2024-01-30T08:11:20;8.27;;;7.30;;
71288;SDS011;59068;52.502;9.860;2024-01-30T08:13:51;9.30;;;7.80;;
71288;SDS011;59068;52.502;9.860;2024-01-30T08:16:18;9.20;;;8.00;;
71288;SDS011;59068;52.502;9.860;2024-01-30T08:18:44;10.93;;;8.23;;
71288;SDS011;59068;52.502;9.860;2024-01-30T08:21:12;8.33;;;7.40;;
71288;SDS011;59068;52.502;9.860;2024-01-30T08:23:42;9.43;;;7.33;;
71288;SDS011;59068;52.502;9.860;2024-01-30T08:26:08;9.63;;;7.37;;
71288;SDS011;59068;52.502;9.860;2024-01-30T08:28:35;8.90;;;7.70;;
71288;SDS011;59068;52.502;9.860;2024-01-30T08:31:02;8.00;;;7.17;;
71288;SDS011;59068;52.502;9.860;2024-01-30T08:33:29;8.93;;;7.90;;
71288;SDS011;59068;52.502;9.860;2024-01-30T08:35:57;10.60;;;7.63;;
71288;SDS011;59068;52.502;9.860;2024-01-30T08:38:24;8.80;;;7.90;;
71288;SDS011;59068;52.502;9.860;2024-01-30T08:40:52;11.03;;;7.93;;
71288;SDS011;59068;52.502;9.860;2024-01-30T08:43:19;11.00;;;7.57;;
71288;SDS011;59068;52.502;9.860;2024-01-30T08:45:47;9.03;;;7.67;;
71288;SDS011;59068;52.502;9.860;2024-01-30T08:48:14;9.33;;;8.00;;
71288;SDS011;59068;52.502;9.860;2024-01-30T08:50:44;11.27;;;7.73;;
71288;SDS011;59068;52.502;9.860;2024-01-30T08:53:11;9.70;;;8.00;;
71288;SDS011;59068;52.502;9.860;2024-01-30T08:55:38;10.50;;;7.50;;
71288;SDS011;59068;52.502;9.860;2024-01-30T08:58:06;7.30;;;6.60;;
71288;SDS011;59068;52.502;9.860;2024-01-30T09:00:34;8.50;;;6.63;;
71288;SDS011;59068;52.502;9.860;2024-01-30T09:03:01;10.10;;;7.30;;
71288;SDS011;59068;52.502;9.860;2024-01-30T09:05:31;8.03;;;7.23;;
71288;SDS011;59068;52.502;9.860;2024-01-30T09:07:59;8.90;;;7.53;;
71288;SDS011;59068;52.502;9.860;2024-01-30T09:10:26;10.37;;;7.47;;
71288;SDS011;59068;52.502;9.860;2024-01-30T09:12:53;7.50;;;6.60;;
71288;SDS011;59068;52.502;9.860;2024-01-30T09:15:23;10.47;;;7.23;;
71288;SDS011;59068;52.502;9.860;2024-01-30T09:17:51;8.97;;;6.40;;
71288;SDS011;59068;52.502;9.860;2024-01-30T09:20:19;8.93;;;6.90;;
71288;SDS011;59068;52.502;9.860;2024-01-30T09:22:49;9.57;;;7.73;;
71288;SDS011;59068;52.502;9.860;2024-01-30T09:25:16;11.33;;;7.70;;
71288;SDS011;59068;52.502;9.860;2024-01-30T09:27:46;7.97;;;7.23;;
71288;SDS011;59068;52.502;9.860;2024-01-30T09:30:14;10.60;;;8.03;;
71288;SDS011;59068;52.502;9.860;2024-01-30T09:32:45;12.33;;;8.17;;
71288;SDS011;59068;52.502;9.860;2024-01-30T09:35:13;8.77;;;7.20;;
71288;SDS011;59068;52.502;9.860;2024-01-30T09:37:40;7.97;;;6.93;;
71288;SDS011;59068;52.502;9.860;2024-01-30T09:40:07;8.93;;;7.53;;
71288;SDS011;59068;52.502;9.860;2024-01-30T09:42:36;9.53;;;7.13;;
71288;SDS011;59068;52.502;9.860;2024-01-30T09:45:04;8.77;;;7.20;;
71288;SDS011;59068;52.502;9.860;2024-01-30T09:47:32;8.70;;;7.37;;
71288;SDS011;59068;52.502;9.860;2024-01-30T09:50:01;8.50;;;6.87;;
71288;SDS011;59068;52.502;9.860;2024-01-30T09:52:31;8.83;;;6.97;;
71288;SDS011;59068;52.502;9.860;2024-01-30T09:54:57;10.27;;;7.17;;
71288;SDS011;59068;52.502;9.860;2024-01-30T09:57:27;7.50;;;6.73;;
71288;SDS011;59068;52.502;9.860;2024-01-30T09:59:54;8.63;;;6.40;;
71288;SDS011;59068;52.502;9.860;2024-01-30T10:02:20;7.97;;;7.17;;
71288;SDS011;59068;52.502;9.860;2024-01-30T10:04:48;9.60;;;6.40;;
71288;SDS011;59068;52.502;9.860;2024-01-30T10:07:18;8.47;;;7.30;;
71288;SDS011;59068;52.502;9.860;2024-01-30T10:09:44;9.17;;;6.03;;
71288;SDS011;59068;52.502;9.860;2024-01-30T10:12:11;7.67;;;6.40;;
71288;SDS011;59068;52.502;9.860;2024-01-30T10:14:37;9.73;;;7.03;;
71288;SDS011;59068;52.502;9.860;2024-01-30T10:17:04;8.93;;;6.77;;
71288;SDS011;59068;52.502;9.860;2024-01-30T10:19:32;7.67;;;6.70;;
71288;SDS011;59068;52.502;9.860;2024-01-30T10:21:59;7.20;;;6.33;;
71288;SDS011;59068;52.502;9.860;2024-01-30T10:24:33;9.13;;;5.93;;
71288;SDS011;59068;52.502;9.860;2024-01-30T10:27:05;9.13;;;6.80;;
71288;SDS011;59068;52.502;9.860;2024-01-30T10:29:32;11.13;;;7.27;;
71288;SDS011;59068;52.502;9.860;2024-01-30T10:32:00;7.70;;;6.37;;
71288;SDS011;59068;52.502;9.860;2024-01-30T10:34:28;7.03;;;6.30;;
71288;SDS011;59068;52.502;9.860;2024-01-30T10:36:58;8.17;;;6.60;;
71288;SDS011;59068;52.502;9.860;2024-01-30T10:39:28;7.60;;;6.83;;
71288;SDS011;59068;52.502;9.860;2024-01-30T10:41:59;10.60;;;6.67;;
71288;SDS011;59068;52.502;9.860;2024-01-30T10:44:28;7.50;;;6.63;;
71288;SDS011;59068;52.502;9.860;2024-01-30T10:49:48;7.13;;;6.00;;
71288;SDS011;59068;52.502;9.860;2024-01-30T10:52:15;7.73;;;6.77;;
71288;SDS011;59068;52.502;9.860;2024-01-30T10:54:42;7.67;;;6.13;;
71288;SDS011;59068;52.502;9.860;2024-01-30T10:57:13;8.90;;;6.63;;
71288;SDS011;59068;52.502;9.860;2024-01-30T10:59:41;9.10;;;6.67;;
71288;SDS011;59068;52.502;9.860;2024-01-30T11:02:08;8.43;;;6.47;;
71288;SDS011;59068;52.502;9.860;2024-01-30T11:04:35;7.13;;;6.10;;
71288;SDS011;59068;52.502;9.860;2024-01-30T11:07:13;7.10;;;6.37;;
71288;SDS011;59068;52.502;9.860;2024-01-30T11:09:40;8.17;;;7.33;;
71288;SDS011;59068;52.502;9.860;2024-01-30T11:12:13;10.23;;;6.60;;
71288;SDS011;59068;52.502;9.860;2024-01-30T11:14:39;8.20;;;5.80;;
71288;SDS011;59068;52.502;9.860;2024-01-30T11:17:06;9.27;;;6.30;;
71288;SDS011;59068;52.502;9.860;2024-01-30T11:19:34;7.40;;;6.60;;
71288;SDS011;59068;52.502;9.860;2024-01-30T11:22:03;7.30;;;6.20;;
71288;SDS011;59068;52.502;9.860;2024-01-30T11:24:30;7.53;;;6.83;;
71288;SDS011;59068;52.502;9.860;2024-01-30T11:26:57;7.93;;;6.07;;
71288;SDS011;59068;52.502;9.860;2024-01-30T11:29:29;7.27;;;6.57;;
71288;SDS011;59068;52.502;9.860;2024-01-30T11:31:57;8.80;;;6.30;;
71288;SDS011;59068;52.502;9.860;2024-01-30T11:34:24;8.57;;;6.07;;
71288;SDS011;59068;52.502;9.860;2024-01-30T11:36:51;6.90;;;6.13;;
71288;SDS011;59068;52.502;9.860;2024-01-30T11:39:20;7.33;;;6.27;;
71288;SDS011;59068;52.502;9.860;2024-01-30T11:41:49;7.93;;;6.50;;
71288;SDS011;59068;52.502;9.860;2024-01-30T11:44:17;6.70;;;5.90;;
71288;SDS011;59068;52.502;9.860;2024-01-30T11:46:45;8.87;;;6.20;;
71288;SDS011;59068;52.502;9.860;2024-01-30T11:49:11;7.27;;;5.90;;
71288;SDS011;59068;52.502;9.860;2024-01-30T11:51:39;7.67;;;5.77;;
71288;SDS011;59068;52.502;9.860;2024-01-30T11:54:05;7.27;;;6.50;;
71288;SDS011;59068;52.502;9.860;2024-01-30T11:56:33;7.23;;;6.53;;
71288;SDS011;59068;52.502;9.860;2024-01-30T11:58:59;6.70;;;5.60;;
71288;SDS011;59068;52.502;9.860;2024-01-30T12:01:26;7.57;;;5.90;;
71288;SDS011;59068;52.502;9.860;2024-01-30T12:03:55;6.53;;;5.93;;
71288;SDS011;59068;52.502;9.860;2024-01-30T12:06:22;6.50;;;5.90;;
71288;SDS011;59068;52.502;9.860;2024-01-30T12:08:56;6.87;;;5.80;;
71288;SDS011;59068;52.502;9.860;2024-01-30T12:11:24;6.90;;;6.20;;
71288;SDS011;59068;52.502;9.860;2024-01-30T12:13:52;7.43;;;6.03;;
71288;SDS011;59068;52.502;9.860;2024-01-30T12:16:18;6.60;;;5.87;;
71288;SDS011;59068;52.502;9.860;2024-01-30T12:18:45;7.37;;;6.60;;
71288;SDS011;59068;52.502;9.860;2024-01-30T12:21:15;7.40;;;6.60;;
71288;SDS011;59068;52.502;9.860;2024-01-30T12:23:44;8.53;;;6.10;;
71288;SDS011;59068;52.502;9.860;2024-01-30T12:26:10;7.90;;;6.53;;
71288;SDS011;59068;52.502;9.860;2024-01-30T12:28:46;8.03;;;6.67;;
71288;SDS011;59068;52.502;9.860;2024-01-30T12:31:14;6.83;;;5.67;;
71288;SDS011;59068;52.502;9.860;2024-01-30T12:33:41;5.87;;;5.27;;
71288;SDS011;59068;52.502;9.860;2024-01-30T12:36:08;6.27;;;5.63;;
71288;SDS011;59068;52.502;9.860;2024-01-30T12:38:37;8.07;;;6.03;;
71288;SDS011;59068;52.502;9.860;2024-01-30T12:41:06;8.20;;;6.10;;
71288;SDS011;59068;52.502;9.860;2024-01-30T12:43:34;7.00;;;6.30;;
71288;SDS011;59068;52.502;9.860;2024-01-30T12:46:02;7.07;;;5.80;;
71288;SDS011;59068;52.502;9.860;2024-01-30T12:48:29;6.33;;;5.63;;
71288;SDS011;59068;52.502;9.860;2024-01-30T12:50:57;9.53;;;6.73;;
71288;SDS011;59068;52.502;9.860;2024-01-30T12:53:25;9.33;;;6.50;;
71288;SDS011;59068;52.502;9.860;2024-01-30T12:55:53;7.73;;;6.00;;
71288;SDS011;59068;52.502;9.860;2024-01-30T12:58:19;8.30;;;6.23;;
71288;SDS011;59068;52.502;9.860;2024-01-30T13:00:47;7.03;;;6.33;;
71288;SDS011;59068;52.502;9.860;2024-01-30T13:03:13;7.13;;;6.27;;
71288;SDS011;59068;52.502;9.860;2024-01-30T13:05:41;7.17;;;6.47;;
71288;SDS011;59068;52.502;9.860;2024-01-30T13:08:08;6.13;;;5.53;;
71288;SDS011;59068;52.502;9.860;2024-01-30T13:10:35;7.60;;;5.57;;
71288;SDS011;59068;52.502;9.860;2024-01-30T13:13:04;6.90;;;5.53;;
71288;SDS011;59068;52.502;9.860;2024-01-30T13:15:30;8.43;;;6.43;;
71288;SDS011;59068;52.502;9.860;2024-01-30T13:17:57;7.73;;;5.90;;
71288;SDS011;59068;52.502;9.860;2024-01-30T13:20:24;8.67;;;6.50;;
71288;SDS011;59068;52.502;9.860;2024-01-30T13:22:50;8.07;;;5.87;;
71288;SDS011;59068;52.502;9.860;2024-01-30T13:25:17;6.47;;;5.90;;
71288;SDS011;59068;52.502;9.860;2024-01-30T13:27:45;6.80;;;6.07;;
71288;SDS011;59068;52.502;9.860;2024-01-30T13:30:13;7.00;;;6.37;;
71288;SDS011;59068;52.502;9.860;2024-01-30T13:32:39;7.67;;;5.90;;
71288;SDS011;59068;52.502;9.860;2024-01-30T13:35:07;7.03;;;6.33;;
71288;SDS011;59068;52.502;9.860;2024-01-30T13:37:35;8.00;;;6.07;;
71288;SDS011;59068;52.502;9.860;2024-01-30T13:40:02;6.53;;;5.90;;
71288;SDS011;59068;52.502;9.860;2024-01-30T13:42:28;10.03;;;6.50;;
71288;SDS011;59068;52.502;9.860;2024-01-30T13:44:56;7.47;;;6.43;;
71288;SDS011;59068;52.502;9.860;2024-01-30T13:47:24;7.00;;;5.93;;
71288;SDS011;59068;52.502;9.860;2024-01-30T13:49:51;7.30;;;6.60;;
71288;SDS011;59068;52.502;9.860;2024-01-30T13:52:18;9.00;;;6.20;;
71288;SDS011;59068;52.502;9.860;2024-01-30T13:54:45;6.73;;;5.80;;
71288;SDS011;59068;52.502;9.860;2024-01-30T13:57:13;6.67;;;5.60;;
71288;SDS011;59068;52.502;9.860;2024-01-30T13:59:41;7.90;;;6.00;;
71288;SDS011;59068;52.502;9.860;2024-01-30T14:02:07;7.57;;;6.50;;
71288;SDS011;59068;52.502;9.860;2024-01-30T14:04:42;7.10;;;6.13;;
71288;SDS011;59068;52.502;9.860;2024-01-30T14:07:09;7.77;;;6.33;;
71288;SDS011;59068;52.502;9.860;2024-01-30T14:09:37;6.17;;;5.17;;
71288;SDS011;59068;52.502;9.860;2024-01-30T14:12:05;6.80;;;6.10;;
71288;SDS011;59068;52.502;9.860;2024-01-30T14:14:31;9.43;;;6.10;;
71288;SDS011;59068;52.502;9.860;2024-01-30T14:16:58;7.10;;;6.40;;
71288;SDS011;59068;52.502;9.860;2024-01-30T14:19:24;6.20;;;5.60;;
71288;SDS011;59068;52.502;9.860;2024-01-30T14:21:53;7.83;;;5.30;;
71288;SDS011;59068;52.502;9.860;2024-01-30T14:24:20;5.93;;;5.23;;
71288;SDS011;59068;52.502;9.860;2024-01-30T14:26:47;7.07;;;6.03;;
71288;SDS011;59068;52.502;9.860;2024-01-30T14:29:13;8.10;;;5.60;;
71288;SDS011;59068;52.502;9.860;2024-01-30T14:31:39;6.40;;;5.30;;
71288;SDS011;59068;52.502;9.860;2024-01-30T14:34:06;6.23;;;5.63;;
71288;SDS011;59068;52.502;9.860;2024-01-30T14:36:33;8.03;;;5.80;;
71288;SDS011;59068;52.502;9.860;2024-01-30T14:39:01;6.03;;;5.43;;
71288;SDS011;59068;52.502;9.860;2024-01-30T14:41:28;6.80;;;5.60;;
71288;SDS011;59068;52.502;9.860;2024-01-30T14:43:55;7.70;;;5.43;;
71288;SDS011;59068;52.502;9.860;2024-01-30T14:46:22;6.93;;;6.03;;
71288;SDS011;59068;52.502;9.860;2024-01-30T14:48:49;7.60;;;5.47;;
71288;SDS011;59068;52.502;9.860;2024-01-30T14:51:16;8.33;;;6.07;;
71288;SDS011;59068;52.502;9.860;2024-01-30T14:53:44;7.80;;;5.67;;
71288;SDS011;59068;52.502;9.860;2024-01-30T14:56:12;6.67;;;6.03;;
71288;SDS011;59068;52.502;9.860;2024-01-30T14:58:38;8.37;;;5.77;;
71288;SDS011;59068;52.502;9.860;2024-01-30T15:01:05;6.90;;;5.93;;
71288;SDS011;59068;52.502;9.860;2024-01-30T15:03:33;6.40;;;5.10;;
71288;SDS011;59068;52.502;9.860;2024-01-30T15:06:02;6.40;;;5.60;;
71288;SDS011;59068;52.502;9.860;2024-01-30T15:08:30;8.43;;;5.97;;